Minto Bridge, Canada
Current Conditions -  °F | °C
As of 6:00 PM on Saturday 25 Oct 2014 (Local Time) from CYMA Reporting Station
Overcast Overcast  
Wind Chill: 19°   Ceiling: 9000
Heat Index: 27°   Visibility: 20mi
Dew Point: 21°   Wind: 7mph
Humidity: 80%   Direction: 360°N
Pressure: 29.81"   Gusts: NA
Location:  63.7°N, 135.85°W
Report Text: CYMA 260100Z 36006KT 20SM FEW018 BKN090 OVC120 M03/M06 A2981 RMK SC2AC5AS1 SLP130
Loading
Personal Weather Stations






























Interactive Weather Map
Tropical Storm Tracking
New forecast layout! Learn more

10-Day Weather Forecast

Advertisements
Track Severe Weather on mobile